sensor_id;sensor_type;location;lat;lon;timestamp;pressure;altitude;pressure_sealevel;temperature;humidity
55171;BME280;41060;47.510;8.680;2022-11-20T00:02:20;96703.53;;;7.85;55.82
55171;BME280;41060;47.510;8.680;2022-11-20T00:04:46;96722.28;;;8.04;56.00
55171;BME280;41060;47.510;8.680;2022-11-20T00:07:14;96722.00;;;7.96;55.90
55171;BME280;41060;47.510;8.680;2022-11-20T00:09:40;96718.16;;;7.65;56.98
55171;BME280;41060;47.510;8.680;2022-11-20T00:12:08;96733.56;;;7.71;56.87
55171;BME280;41060;47.510;8.680;2022-11-20T00:14:35;96731.13;;;7.68;56.90
55171;BME280;41060;47.510;8.680;2022-11-20T00:17:02;96710.59;;;7.60;56.31
55171;BME280;41060;47.510;8.680;2022-11-20T00:19:30;96736.41;;;7.68;56.68
55171;BME280;41060;47.510;8.680;2022-11-20T00:21:57;96741.50;;;7.82;56.37
55171;BME280;41060;47.510;8.680;2022-11-20T00:24:24;96737.34;;;7.91;55.85
55171;BME280;41060;47.510;8.680;2022-11-20T00:26:53;96743.66;;;7.88;56.13
55171;BME280;41060;47.510;8.680;2022-11-20T00:29:21;96744.00;;;7.60;56.58
55171;BME280;41060;47.510;8.680;2022-11-20T00:31:48;96743.53;;;7.66;56.42
55171;BME280;41060;47.510;8.680;2022-11-20T00:34:14;96736.13;;;7.84;56.06
55171;BME280;41060;47.510;8.680;2022-11-20T00:36:41;96734.59;;;7.92;56.13
55171;BME280;41060;47.510;8.680;2022-11-20T00:39:11;96730.25;;;7.91;56.30
55171;BME280;41060;47.510;8.680;2022-11-20T00:41:37;96730.75;;;7.96;56.11
55171;BME280;41060;47.510;8.680;2022-11-20T00:44:04;96743.09;;;7.96;56.11
55171;BME280;41060;47.510;8.680;2022-11-20T00:46:32;96746.25;;;8.12;56.03
55171;BME280;41060;47.510;8.680;2022-11-20T00:48:59;96728.50;;;8.03;55.92
55171;BME280;41060;47.510;8.680;2022-11-20T00:51:27;96751.28;;;8.04;56.03
55171;BME280;41060;47.510;8.680;2022-11-20T00:53:55;96750.09;;;8.08;56.10
55171;BME280;41060;47.510;8.680;2022-11-20T00:56:21;96748.94;;;8.23;55.74
55171;BME280;41060;47.510;8.680;2022-11-20T00:58:49;96757.44;;;8.16;56.22
55171;BME280;41060;47.510;8.680;2022-11-20T01:01:17;96760.94;;;8.27;55.86
55171;BME280;41060;47.510;8.680;2022-11-20T01:03:46;96758.41;;;8.26;55.79
55171;BME280;41060;47.510;8.680;2022-11-20T01:06:16;96756.97;;;8.33;55.83
55171;BME280;41060;47.510;8.680;2022-11-20T01:08:43;96742.25;;;8.30;55.71
55171;BME280;41060;47.510;8.680;2022-11-20T01:11:11;96759.72;;;8.20;56.02
55171;BME280;41060;47.510;8.680;2022-11-20T01:13:41;96754.28;;;8.11;56.27
55171;BME280;41060;47.510;8.680;2022-11-20T01:16:13;96741.25;;;8.09;56.01
55171;BME280;41060;47.510;8.680;2022-11-20T01:18:42;96752.97;;;8.05;56.30
55171;BME280;41060;47.510;8.680;2022-11-20T01:21:12;96741.25;;;8.09;55.98
55171;BME280;41060;47.510;8.680;2022-11-20T01:23:41;96755.97;;;8.12;56.36
55171;BME280;41060;47.510;8.680;2022-11-20T01:26:11;96760.34;;;8.24;56.28
55171;BME280;41060;47.510;8.680;2022-11-20T01:28:38;96731.97;;;8.04;55.83
55171;BME280;41060;47.510;8.680;2022-11-20T01:31:11;96747.69;;;8.05;56.15
55171;BME280;41060;47.510;8.680;2022-11-20T01:33:39;96770.09;;;7.99;56.21
55171;BME280;41060;47.510;8.680;2022-11-20T01:36:07;96773.19;;;7.93;56.36
55171;BME280;41060;47.510;8.680;2022-11-20T01:38:38;96767.91;;;7.93;56.46
55171;BME280;41060;47.510;8.680;2022-11-20T01:41:06;96775.94;;;7.92;56.80
55171;BME280;41060;47.510;8.680;2022-11-20T01:43:34;96772.59;;;8.01;56.44
55171;BME280;41060;47.510;8.680;2022-11-20T01:46:03;96768.94;;;8.15;55.56
55171;BME280;41060;47.510;8.680;2022-11-20T01:48:35;96743.72;;;7.99;54.65
55171;BME280;41060;47.510;8.680;2022-11-20T01:51:06;96784.56;;;8.29;54.60
55171;BME280;41060;47.510;8.680;2022-11-20T01:53:39;96775.69;;;8.30;54.17
55171;BME280;41060;47.510;8.680;2022-11-20T01:56:09;96771.91;;;8.10;54.74
55171;BME280;41060;47.510;8.680;2022-11-20T01:58:45;96769.81;;;7.91;54.88
55171;BME280;41060;47.510;8.680;2022-11-20T02:01:13;96776.53;;;7.95;55.26
55171;BME280;41060;47.510;8.680;2022-11-20T02:03:41;96774.41;;;7.77;55.37
55171;BME280;41060;47.510;8.680;2022-11-20T02:06:12;96774.97;;;7.69;55.47
55171;BME280;41060;47.510;8.680;2022-11-20T02:08:43;96783.34;;;7.50;56.07
55171;BME280;41060;47.510;8.680;2022-11-20T02:11:09;96772.34;;;7.69;55.47
55171;BME280;41060;47.510;8.680;2022-11-20T02:13:38;96779.22;;;7.83;55.25
55171;BME280;41060;47.510;8.680;2022-11-20T02:16:14;96773.50;;;7.89;55.21
55171;BME280;41060;47.510;8.680;2022-11-20T02:18:42;96767.53;;;7.87;54.89
55171;BME280;41060;47.510;8.680;2022-11-20T02:21:33;96769.16;;;7.77;55.01
55171;BME280;41060;47.510;8.680;2022-11-20T02:24:05;96772.16;;;7.83;55.24
55171;BME280;41060;47.510;8.680;2022-11-20T02:26:38;96761.16;;;7.89;55.04
55171;BME280;41060;47.510;8.680;2022-11-20T02:29:06;96779.44;;;8.04;54.78
55171;BME280;41060;47.510;8.680;2022-11-20T02:31:38;96780.06;;;8.07;54.76
55171;BME280;41060;47.510;8.680;2022-11-20T02:34:06;96783.06;;;8.14;54.75
55171;BME280;41060;47.510;8.680;2022-11-20T02:36:35;96771.00;;;8.22;54.25
55171;BME280;41060;47.510;8.680;2022-11-20T02:39:04;96778.56;;;8.27;54.58
55171;BME280;41060;47.510;8.680;2022-11-20T02:41:33;96780.84;;;8.31;53.96
55171;BME280;41060;47.510;8.680;2022-11-20T02:44:01;96777.63;;;8.39;53.59
55171;BME280;41060;47.510;8.680;2022-11-20T02:46:27;96772.09;;;8.42;52.85
55171;BME280;41060;47.510;8.680;2022-11-20T02:48:54;96732.34;;;8.10;52.91
55171;BME280;41060;47.510;8.680;2022-11-20T02:51:22;96727.69;;;8.14;52.76
55171;BME280;41060;47.510;8.680;2022-11-20T02:53:49;96771.59;;;8.26;52.78
55171;BME280;41060;47.510;8.680;2022-11-20T02:56:17;96767.31;;;8.36;53.08
55171;BME280;41060;47.510;8.680;2022-11-20T02:58:44;96760.25;;;8.36;52.68
55171;BME280;41060;47.510;8.680;2022-11-20T03:01:11;96772.72;;;8.46;52.83
55171;BME280;41060;47.510;8.680;2022-11-20T03:03:39;96768.03;;;8.38;53.00
55171;BME280;41060;47.510;8.680;2022-11-20T03:06:06;96783.41;;;8.44;52.69
55171;BME280;41060;47.510;8.680;2022-11-20T03:08:33;96767.47;;;8.46;52.22
55171;BME280;41060;47.510;8.680;2022-11-20T03:11:03;96773.06;;;8.30;52.75
55171;BME280;41060;47.510;8.680;2022-11-20T03:13:32;96771.16;;;8.43;52.64
55171;BME280;41060;47.510;8.680;2022-11-20T03:16:05;96759.16;;;8.39;52.63
55171;BME280;41060;47.510;8.680;2022-11-20T03:18:32;96773.69;;;8.45;52.00
55171;BME280;41060;47.510;8.680;2022-11-20T03:20:59;96759.41;;;8.36;51.91
55171;BME280;41060;47.510;8.680;2022-11-20T03:23:25;96766.84;;;8.42;51.85
55171;BME280;41060;47.510;8.680;2022-11-20T03:25:52;96754.72;;;8.39;52.11
55171;BME280;41060;47.510;8.680;2022-11-20T03:28:19;96762.03;;;8.36;51.90
55171;BME280;41060;47.510;8.680;2022-11-20T03:30:47;96712.25;;;8.20;51.90
55171;BME280;41060;47.510;8.680;2022-11-20T03:33:14;96762.03;;;8.47;52.12
55171;BME280;41060;47.510;8.680;2022-11-20T03:35:44;96761.34;;;8.56;51.67
55171;BME280;41060;47.510;8.680;2022-11-20T03:38:10;96769.72;;;8.50;51.72
55171;BME280;41060;47.510;8.680;2022-11-20T03:40:39;96768.72;;;8.29;52.24
55171;BME280;41060;47.510;8.680;2022-11-20T03:43:06;96768.16;;;8.48;51.73
55171;BME280;41060;47.510;8.680;2022-11-20T03:45:32;96778.97;;;8.45;51.87
55171;BME280;41060;47.510;8.680;2022-11-20T03:48:02;96748.22;;;8.21;52.17
55171;BME280;41060;47.510;8.680;2022-11-20T03:50:28;96772.22;;;8.40;52.00
55171;BME280;41060;47.510;8.680;2022-11-20T03:52:55;96786.13;;;8.31;52.15
55171;BME280;41060;47.510;8.680;2022-11-20T03:55:22;96786.03;;;8.44;52.13
55171;BME280;41060;47.510;8.680;2022-11-20T03:57:48;96783.13;;;8.36;51.28
55171;BME280;41060;47.510;8.680;2022-11-20T04:00:15;96780.50;;;8.47;51.38
55171;BME280;41060;47.510;8.680;2022-11-20T04:02:44;96783.28;;;8.57;51.01
55171;BME280;41060;47.510;8.680;2022-11-20T04:05:12;96784.84;;;8.48;51.05
55171;BME280;41060;47.510;8.680;2022-11-20T04:07:39;96781.97;;;8.51;51.27
55171;BME280;41060;47.510;8.680;2022-11-20T04:10:06;96779.06;;;8.54;51.35
55171;BME280;41060;47.510;8.680;2022-11-20T04:12:33;96775.03;;;8.61;51.39
55171;BME280;41060;47.510;8.680;2022-11-20T04:14:59;96783.19;;;8.58;50.96
55171;BME280;41060;47.510;8.680;2022-11-20T04:17:27;96778.25;;;8.54;51.20
55171;BME280;41060;47.510;8.680;2022-11-20T04:19:53;96776.31;;;8.45;51.51
55171;BME280;41060;47.510;8.680;2022-11-20T04:22:23;96754.28;;;8.11;51.78
55171;BME280;41060;47.510;8.680;2022-11-20T04:24:50;96770.06;;;8.34;51.62
55171;BME280;41060;47.510;8.680;2022-11-20T04:27:17;96776.66;;;8.29;51.14
55171;BME280;41060;47.510;8.680;2022-11-20T04:29:43;96768.19;;;8.13;51.39
55171;BME280;41060;47.510;8.680;2022-11-20T04:32:13;96785.72;;;8.14;51.80
55171;BME280;41060;47.510;8.680;2022-11-20T04:34:40;96778.97;;;8.10;52.12
55171;BME280;41060;47.510;8.680;2022-11-20T04:37:06;96756.28;;;7.96;52.14
55171;BME280;41060;47.510;8.680;2022-11-20T04:39:35;96778.00;;;7.99;52.73
55171;BME280;41060;47.510;8.680;2022-11-20T04:42:01;96774.59;;;7.86;53.33
55171;BME280;41060;47.510;8.680;2022-11-20T04:44:46;96770.03;;;7.88;53.48
55171;BME280;41060;47.510;8.680;2022-11-20T04:47:12;96767.53;;;7.87;53.51
55171;BME280;41060;47.510;8.680;2022-11-20T04:49:39;96773.28;;;7.92;52.93
55171;BME280;41060;47.510;8.680;2022-11-20T04:52:06;96772.53;;;7.79;53.33
55171;BME280;41060;47.510;8.680;2022-11-20T04:54:34;96772.06;;;7.85;53.35
55171;BME280;41060;47.510;8.680;2022-11-20T04:57:01;96765.47;;;7.79;53.49
55171;BME280;41060;47.510;8.680;2022-11-20T04:59:28;96766.13;;;7.70;53.50
55171;BME280;41060;47.510;8.680;2022-11-20T05:01:54;96760.53;;;7.62;53.69
55171;BME280;41060;47.510;8.680;2022-11-20T05:04:21;96766.66;;;7.62;53.99
55171;BME280;41060;47.510;8.680;2022-11-20T05:06:49;96718.72;;;7.34;53.98
55171;BME280;41060;47.510;8.680;2022-11-20T05:09:15;96761.06;;;7.67;53.66
55171;BME280;41060;47.510;8.680;2022-11-20T05:11:43;96769.25;;;7.75;53.51
55171;BME280;41060;47.510;8.680;2022-11-20T05:14:10;96770.59;;;7.81;53.19
55171;BME280;41060;47.510;8.680;2022-11-20T05:16:37;96762.53;;;7.71;53.37
55171;BME280;41060;47.510;8.680;2022-11-20T05:19:03;96768.97;;;7.67;53.63
55171;BME280;41060;47.510;8.680;2022-11-20T05:21:31;96768.53;;;7.73;53.38
55171;BME280;41060;47.510;8.680;2022-11-20T05:23:58;96776.44;;;7.73;53.51
55171;BME280;41060;47.510;8.680;2022-11-20T05:26:24;96777.25;;;7.74;53.58
55171;BME280;41060;47.510;8.680;2022-11-20T05:28:53;96787.50;;;7.78;53.25
55171;BME280;41060;47.510;8.680;2022-11-20T05:31:20;96758.00;;;7.60;53.65
55171;BME280;41060;47.510;8.680;2022-11-20T05:33:47;96791.56;;;7.82;53.53
55171;BME280;41060;47.510;8.680;2022-11-20T05:36:14;96786.09;;;7.85;53.11
55171;BME280;41060;47.510;8.680;2022-11-20T05:38:42;96787.78;;;7.86;53.21
55171;BME280;41060;47.510;8.680;2022-11-20T05:41:10;96788.63;;;7.87;53.17
55171;BME280;41060;47.510;8.680;2022-11-20T05:43:39;96781.03;;;7.82;53.33
55171;BME280;41060;47.510;8.680;2022-11-20T05:46:12;96771.53;;;7.56;53.80
55171;BME280;41060;47.510;8.680;2022-11-20T05:48:40;96783.84;;;7.68;53.88
55171;BME280;41060;47.510;8.680;2022-11-20T05:51:09;96754.94;;;7.43;54.12
55171;BME280;41060;47.510;8.680;2022-11-20T05:53:37;96793.66;;;7.53;54.92
55171;BME280;41060;47.510;8.680;2022-11-20T05:56:06;96791.28;;;7.38;55.14
55171;BME280;41060;47.510;8.680;2022-11-20T05:58:33;96798.19;;;7.51;55.13
55171;BME280;41060;47.510;8.680;2022-11-20T06:01:05;96795.25;;;7.56;55.15
55171;BME280;41060;47.510;8.680;2022-11-20T06:03:33;96799.78;;;7.54;55.23
55171;BME280;41060;47.510;8.680;2022-11-20T06:06:01;96792.53;;;7.45;55.26
55171;BME280;41060;47.510;8.680;2022-11-20T06:08:28;96799.00;;;7.65;55.19
55171;BME280;41060;47.510;8.680;2022-11-20T06:10:55;96801.34;;;7.56;55.58
55171;BME280;41060;47.510;8.680;2022-11-20T06:13:22;96808.28;;;7.70;55.05
55171;BME280;41060;47.510;8.680;2022-11-20T06:15:49;96813.84;;;7.66;54.80
55171;BME280;41060;47.510;8.680;2022-11-20T06:18:17;96799.78;;;7.54;54.81
55171;BME280;41060;47.510;8.680;2022-11-20T06:20:45;96819.97;;;7.30;55.13
55171;BME280;41060;47.510;8.680;2022-11-20T06:23:12;96813.00;;;7.41;54.82
55171;BME280;41060;47.510;8.680;2022-11-20T06:25:42;96823.00;;;7.36;54.74
55171;BME280;41060;47.510;8.680;2022-11-20T06:28:09;96811.13;;;7.31;54.63
55171;BME280;41060;47.510;8.680;2022-11-20T06:30:35;96807.00;;;7.39;54.52
55171;BME280;41060;47.510;8.680;2022-11-20T06:33:05;96801.44;;;7.31;54.60
55171;BME280;41060;47.510;8.680;2022-11-20T06:35:32;96804.69;;;7.35;54.52
55171;BME280;41060;47.510;8.680;2022-11-20T06:38:00;96788.66;;;7.01;55.05
55171;BME280;41060;47.510;8.680;2022-11-20T06:40:27;96809.47;;;7.17;55.62
55171;BME280;41060;47.510;8.680;2022-11-20T06:42:54;96797.47;;;7.00;55.65
55171;BME280;41060;47.510;8.680;2022-11-20T06:45:21;96796.53;;;7.01;56.03
55171;BME280;41060;47.510;8.680;2022-11-20T06:47:48;96817.28;;;7.18;55.88
55171;BME280;41060;47.510;8.680;2022-11-20T06:50:14;96803.72;;;7.36;55.73
55171;BME280;41060;47.510;8.680;2022-11-20T06:52:41;96807.88;;;7.51;55.29
55171;BME280;41060;47.510;8.680;2022-11-20T06:55:09;96811.06;;;7.43;55.27
55171;BME280;41060;47.510;8.680;2022-11-20T06:57:36;96814.91;;;7.39;55.30
55171;BME280;41060;47.510;8.680;2022-11-20T07:00:03;96821.50;;;7.57;54.94
55171;BME280;41060;47.510;8.680;2022-11-20T07:02:30;96808.50;;;7.67;55.10
55171;BME280;41060;47.510;8.680;2022-11-20T07:04:57;96824.44;;;7.53;54.90
55171;BME280;41060;47.510;8.680;2022-11-20T07:07:23;96820.41;;;7.60;55.05
55171;BME280;41060;47.510;8.680;2022-11-20T07:09:51;96714.19;;;6.99;54.74
55171;BME280;41060;47.510;8.680;2022-11-20T07:12:18;96825.06;;;7.69;54.77
55171;BME280;41060;47.510;8.680;2022-11-20T07:14:45;96832.97;;;7.56;55.32
55171;BME280;41060;47.510;8.680;2022-11-20T07:17:12;96831.78;;;7.60;55.20
55171;BME280;41060;47.510;8.680;2022-11-20T07:19:39;96836.34;;;7.71;55.34
55171;BME280;41060;47.510;8.680;2022-11-20T07:22:05;96838.81;;;7.73;54.95
55171;BME280;41060;47.510;8.680;2022-11-20T07:24:32;96844.28;;;7.82;54.46
55171;BME280;41060;47.510;8.680;2022-11-20T07:26:59;96843.84;;;7.88;54.13
55171;BME280;41060;47.510;8.680;2022-11-20T07:29:27;96844.69;;;7.89;54.08
55171;BME280;41060;47.510;8.680;2022-11-20T07:31:54;96847.56;;;7.86;54.40
55171;BME280;41060;47.510;8.680;2022-11-20T07:34:24;96852.81;;;7.86;54.40
55171;BME280;41060;47.510;8.680;2022-11-20T07:36:51;96846.66;;;7.98;53.63
55171;BME280;41060;47.510;8.680;2022-11-20T07:39:18;96854.09;;;8.04;54.10
55171;BME280;41060;47.510;8.680;2022-11-20T07:41:45;96851.16;;;8.09;53.89
55171;BME280;41060;47.510;8.680;2022-11-20T07:44:11;96846.25;;;8.15;53.82
55171;BME280;41060;47.510;8.680;2022-11-20T07:46:40;96815.97;;;7.97;53.76
55171;BME280;41060;47.510;8.680;2022-11-20T07:49:06;96842.53;;;8.18;53.79
55171;BME280;41060;47.510;8.680;2022-11-20T07:51:33;96843.00;;;8.12;53.65
55171;BME280;41060;47.510;8.680;2022-11-20T07:54:00;96842.50;;;8.07;53.78
55171;BME280;41060;47.510;8.680;2022-11-20T07:56:27;96851.63;;;8.14;53.58
55171;BME280;41060;47.510;8.680;2022-11-20T07:58:53;96843.38;;;8.18;53.54
55171;BME280;41060;47.510;8.680;2022-11-20T08:01:20;96857.53;;;7.93;53.74
55171;BME280;41060;47.510;8.680;2022-11-20T08:03:48;96853.97;;;7.94;54.12
55171;BME280;41060;47.510;8.680;2022-11-20T08:06:15;96856.84;;;8.02;53.94
55171;BME280;41060;47.510;8.680;2022-11-20T08:08:43;96829.97;;;7.74;53.82
55171;BME280;41060;47.510;8.680;2022-11-20T08:11:09;96852.94;;;7.84;54.35
55171;BME280;41060;47.510;8.680;2022-11-20T08:13:54;96852.47;;;7.90;53.69
55171;BME280;41060;47.510;8.680;2022-11-20T08:16:42;96848.72;;;8.06;53.70
55171;BME280;41060;47.510;8.680;2022-11-20T08:19:11;96858.81;;;7.88;53.90
55171;BME280;41060;47.510;8.680;2022-11-20T08:21:37;96855.84;;;7.56;54.88
55171;BME280;41060;47.510;8.680;2022-11-20T08:24:05;96818.22;;;7.17;54.97
55171;BME280;41060;47.510;8.680;2022-11-20T08:26:33;96861.56;;;7.86;54.53
55171;BME280;41060;47.510;8.680;2022-11-20T08:28:59;96862.97;;;7.67;54.65
55171;BME280;41060;47.510;8.680;2022-11-20T08:31:27;96850.00;;;7.76;54.64
55171;BME280;41060;47.510;8.680;2022-11-20T08:33:54;96868.56;;;7.75;54.49
55171;BME280;41060;47.510;8.680;2022-11-20T08:36:24;96858.88;;;7.99;54.62
55171;BME280;41060;47.510;8.680;2022-11-20T08:38:52;96859.56;;;8.14;54.45
55171;BME280;41060;47.510;8.680;2022-11-20T08:41:20;96841.28;;;7.99;53.40
55171;BME280;41060;47.510;8.680;2022-11-20T08:43:55;96865.66;;;8.14;53.71
55171;BME280;41060;47.510;8.680;2022-11-20T08:46:24;96819.16;;;7.89;53.27
55171;BME280;41060;47.510;8.680;2022-11-20T08:48:51;96859.91;;;8.09;53.20
55171;BME280;41060;47.510;8.680;2022-11-20T08:51:18;96857.47;;;7.82;53.97
55171;BME280;41060;47.510;8.680;2022-11-20T08:53:47;96859.50;;;7.79;54.41
55171;BME280;41060;47.510;8.680;2022-11-20T08:56:15;96864.13;;;7.75;54.36
55171;BME280;41060;47.510;8.680;2022-11-20T08:58:42;96865.72;;;7.78;54.08
55171;BME280;41060;47.510;8.680;2022-11-20T09:01:09;96849.94;;;7.65;53.74
55171;BME280;41060;47.510;8.680;2022-11-20T09:03:36;96873.28;;;7.82;53.50
55171;BME280;41060;47.510;8.680;2022-11-20T09:06:04;96856.31;;;7.86;53.61
55171;BME280;41060;47.510;8.680;2022-11-20T09:08:32;96877.22;;;8.00;53.24
55171;BME280;41060;47.510;8.680;2022-11-20T09:11:00;96869.06;;;8.04;53.34
55171;BME280;41060;47.510;8.680;2022-11-20T09:13:28;96861.91;;;8.06;53.00
55171;BME280;41060;47.510;8.680;2022-11-20T09:15:57;96850.69;;;7.91;53.92
55171;BME280;41060;47.510;8.680;2022-11-20T09:18:24;96863.91;;;8.26;52.79
55171;BME280;41060;47.510;8.680;2022-11-20T09:20:51;96845.75;;;7.86;53.02
55171;BME280;41060;47.510;8.680;2022-11-20T09:23:19;96839.66;;;7.86;52.49
55171;BME280;41060;47.510;8.680;2022-11-20T09:25:45;96867.13;;;7.94;53.31
55171;BME280;41060;47.510;8.680;2022-11-20T09:28:13;96860.97;;;8.07;52.29
55171;BME280;41060;47.510;8.680;2022-11-20T09:30:40;96861.34;;;8.13;52.22
55171;BME280;41060;47.510;8.680;2022-11-20T09:33:07;96870.09;;;7.90;52.66
55171;BME280;41060;47.510;8.680;2022-11-20T09:35:33;96865.00;;;7.99;52.60
55171;BME280;41060;47.510;8.680;2022-11-20T09:38:04;96823.44;;;7.79;52.49
55171;BME280;41060;47.510;8.680;2022-11-20T09:40:32;96860.97;;;8.07;52.36
55171;BME280;41060;47.510;8.680;2022-11-20T09:43:02;96864.06;;;7.88;53.20
55171;BME280;41060;47.510;8.680;2022-11-20T09:45:42;96865.59;;;8.03;53.14
55171;BME280;41060;47.510;8.680;2022-11-20T09:48:31;96870.75;;;8.05;52.56
55171;BME280;41060;47.510;8.680;2022-11-20T09:51:06;96844.41;;;8.05;52.29
55171;BME280;41060;47.510;8.680;2022-11-20T09:53:41;96876.81;;;8.42;51.76
55171;BME280;41060;47.510;8.680;2022-11-20T09:56:14;96883.03;;;8.40;51.66
55171;BME280;41060;47.510;8.680;2022-11-20T09:58:42;96875.66;;;8.22;51.56
55171;BME280;41060;47.510;8.680;2022-11-20T10:01:15;96875.56;;;8.34;51.75
55171;BME280;41060;47.510;8.680;2022-11-20T10:03:50;96866.25;;;8.42;51.44
55171;BME280;41060;47.510;8.680;2022-11-20T10:06:21;96880.00;;;8.69;51.33
55171;BME280;41060;47.510;8.680;2022-11-20T10:08:55;96869.97;;;8.39;51.46
55171;BME280;41060;47.510;8.680;2022-11-20T10:11:31;96867.94;;;8.43;51.45
55171;BME280;41060;47.510;8.680;2022-11-20T10:14:09;96857.81;;;8.60;51.18
55171;BME280;41060;47.510;8.680;2022-11-20T10:16:50;96870.63;;;8.65;50.97
55171;BME280;41060;47.510;8.680;2022-11-20T10:19:31;96864.09;;;8.82;50.48
55171;BME280;41060;47.510;8.680;2022-11-20T10:22:09;96861.19;;;8.85;50.42
55171;BME280;41060;47.510;8.680;2022-11-20T10:24:50;96860.53;;;9.16;49.97
55171;BME280;41060;47.510;8.680;2022-11-20T10:27:32;96859.91;;;9.01;49.74
55171;BME280;41060;47.510;8.680;2022-11-20T10:30:08;96862.31;;;9.15;50.49
55171;BME280;41060;47.510;8.680;2022-11-20T10:32:38;96841.50;;;8.66;50.89
55171;BME280;41060;47.510;8.680;2022-11-20T10:35:16;96858.25;;;9.11;50.15
55171;BME280;41060;47.510;8.680;2022-11-20T10:37:49;96855.00;;;9.19;49.36
55171;BME280;41060;47.510;8.680;2022-11-20T10:40:27;96850.47;;;9.54;49.85
55171;BME280;41060;47.510;8.680;2022-11-20T10:42:56;96855.00;;;9.52;49.50
55171;BME280;41060;47.510;8.680;2022-11-20T10:45:42;96844.94;;;9.24;49.40
55171;BME280;41060;47.510;8.680;2022-11-20T10:48:21;96848.31;;;9.26;50.30
55171;BME280;41060;47.510;8.680;2022-11-20T10:51:04;96845.19;;;9.32;49.60
55171;BME280;41060;47.510;8.680;2022-11-20T10:56:26;96823.56;;;9.49;49.19
55171;BME280;41060;47.510;8.680;2022-11-20T11:01:57;96828.59;;;9.19;49.60
55171;BME280;41060;47.510;8.680;2022-11-20T11:04:33;96836.88;;;9.37;49.32
55171;BME280;41060;47.510;8.680;2022-11-20T11:07:08;96784.03;;;9.48;48.67
55171;BME280;41060;47.510;8.680;2022-11-20T11:09:39;96817.72;;;9.78;48.05
55171;BME280;41060;47.510;8.680;2022-11-20T11:12:08;96805.19;;;9.91;48.00
55171;BME280;41060;47.510;8.680;2022-11-20T11:14:43;96817.88;;;10.08;47.31
55171;BME280;41060;47.510;8.680;2022-11-20T11:17:24;96824.03;;;9.43;47.52
55171;BME280;41060;47.510;8.680;2022-11-20T11:20:07;96827.00;;;8.94;48.36
55171;BME280;41060;47.510;8.680;2022-11-20T11:22:44;96821.81;;;8.70;49.45
55171;BME280;41060;47.510;8.680;2022-11-20T11:25:20;96817.03;;;8.87;49.34
55171;BME280;41060;47.510;8.680;2022-11-20T11:27:50;96802.53;;;9.14;48.46
55171;BME280;41060;47.510;8.680;2022-11-20T11:30:18;96799.31;;;9.11;48.56
55171;BME280;41060;47.510;8.680;2022-11-20T11:32:45;96797.00;;;9.17;49.47
55171;BME280;41060;47.510;8.680;2022-11-20T11:35:22;96794.59;;;9.48;49.08
55171;BME280;41060;47.510;8.680;2022-11-20T11:37:50;96790.00;;;9.61;47.13
55171;BME280;41060;47.510;8.680;2022-11-20T11:40:21;96788.47;;;9.36;47.40
55171;BME280;41060;47.510;8.680;2022-11-20T11:42:52;96768.56;;;9.32;47.31
55171;BME280;41060;47.510;8.680;2022-11-20T11:45:21;96780.16;;;9.63;47.51
55171;BME280;41060;47.510;8.680;2022-11-20T11:47:47;96772.22;;;9.95;47.16
55171;BME280;41060;47.510;8.680;2022-11-20T11:50:17;96771.03;;;9.99;46.86
55171;BME280;41060;47.510;8.680;2022-11-20T11:52:51;96761.69;;;9.84;46.67
55171;BME280;41060;47.510;8.680;2022-11-20T11:55:28;96771.22;;;10.07;46.75
55171;BME280;41060;47.510;8.680;2022-11-20T11:58:02;96722.91;;;9.73;46.16
55171;BME280;41060;47.510;8.680;2022-11-20T12:00:34;96755.53;;;9.94;47.02
55171;BME280;41060;47.510;8.680;2022-11-20T12:03:08;96756.22;;;9.97;46.24
55171;BME280;41060;47.510;8.680;2022-11-20T12:05:38;96754.09;;;9.90;45.84
55171;BME280;41060;47.510;8.680;2022-11-20T12:08:15;96753.16;;;9.80;46.12
55171;BME280;41060;47.510;8.680;2022-11-20T12:10:46;96725.19;;;9.78;46.17
55171;BME280;41060;47.510;8.680;2022-11-20T12:13:22;96752.09;;;10.04;46.19
55171;BME280;41060;47.510;8.680;2022-11-20T12:15:51;96745.31;;;9.90;45.96
55171;BME280;41060;47.510;8.680;2022-11-20T12:18:20;96742.31;;;9.51;46.33
55171;BME280;41060;47.510;8.680;2022-11-20T12:20:56;96743.28;;;9.50;47.25
55171;BME280;41060;47.510;8.680;2022-11-20T12:23:38;96744.56;;;9.35;46.67
55171;BME280;41060;47.510;8.680;2022-11-20T12:26:13;96736.31;;;9.61;46.76
55171;BME280;41060;47.510;8.680;2022-11-20T12:28:52;96742.53;;;9.71;46.44
55171;BME280;41060;47.510;8.680;2022-11-20T12:31:34;96752.44;;;9.58;46.71
55171;BME280;41060;47.510;8.680;2022-11-20T12:34:15;96734.38;;;8.75;50.69
55171;BME280;41060;47.510;8.680;2022-11-20T12:36:49;96745.28;;;8.59;51.26
55171;BME280;41060;47.510;8.680;2022-11-20T12:39:33;96746.72;;;8.86;51.66
55171;BME280;41060;47.510;8.680;2022-11-20T12:42:30;96735.06;;;8.77;51.77
55171;BME280;41060;47.510;8.680;2022-11-20T12:45:54;96729.78;;;9.10;51.02
55171;BME280;41060;47.510;8.680;2022-11-20T12:48:48;96727.03;;;9.34;50.33
55171;BME280;41060;47.510;8.680;2022-11-20T12:51:48;96714.78;;;9.11;50.52
55171;BME280;41060;47.510;8.680;2022-11-20T12:54:35;96706.16;;;8.98;49.86
55171;BME280;41060;47.510;8.680;2022-11-20T12:57:18;96709.72;;;9.19;50.35
55171;BME280;41060;47.510;8.680;2022-11-20T13:00:07;96704.19;;;9.33;50.73
55171;BME280;41060;47.510;8.680;2022-11-20T13:02:44;96701.84;;;9.51;50.53
55171;BME280;41060;47.510;8.680;2022-11-20T13:05:19;96694.97;;;9.60;50.27
55171;BME280;41060;47.510;8.680;2022-11-20T13:07:53;96674.78;;;9.59;50.10
55171;BME280;41060;47.510;8.680;2022-11-20T13:10:29;96696.22;;;9.76;51.08
55171;BME280;41060;47.510;8.680;2022-11-20T13:13:01;96587.75;;;9.14;51.64
55171;BME280;41060;47.510;8.680;2022-11-20T13:15:44;96696.41;;;9.64;50.34
55171;BME280;41060;47.510;8.680;2022-11-20T13:18:14;96686.06;;;9.92;50.20
55171;BME280;41060;47.510;8.680;2022-11-20T13:20:42;96687.16;;;9.90;48.51
55171;BME280;41060;47.510;8.680;2022-11-20T13:23:09;96680.00;;;10.22;48.51
55171;BME280;41060;47.510;8.680;2022-11-20T13:25:39;96670.28;;;10.32;46.96
55171;BME280;41060;47.510;8.680;2022-11-20T13:28:27;96675.19;;;10.37;47.09
55171;BME280;41060;47.510;8.680;2022-11-20T13:30:58;96681.22;;;10.18;46.29
55171;BME280;41060;47.510;8.680;2022-11-20T13:33:29;96670.38;;;9.80;46.01